Terminal Aerodrome Forecast
Issued by NWS Binghamton, NY

Home | Current Version | Previous Version | Text Only | Print | Product List | Glossary On
Versions: 1 2 3 4 5 6 7 8 9 10 11 12 13 14 15 16 17 18 19 20
747
FTUS41 KBGM 091125
TAFBGM
TAF
KBGM 091125Z 0912/1012 29012G22KT 5SM -SHSN BR SCT015 OVC025
      TEMPO 0912/0914 2SM -SHSN BR OVC015
     FM091500 31015G25KT 5SM -SHSN BR BKN025
     FM092100 31012G22KT P6SM -SHSN BKN035
     FM092200 31008KT P6SM BKN035=

USA.gov is the U.S. government's official web portal to all federal, state and local government web resources and services.